sim
Sign-in with your pilot id or email,
or register
Callsign
Passwort

Schedule Details

Flight Number: DLH2662
Departure: Munich Airport (EDDM) at 09:10
Arrival: Tenerife South Airport (GCTS) at 14:00
Route: Lufthansa Passenger Schedule. Enter filed route here before submitting Pirep.

Weather Information
Getting current METAR information for EDDM 191220Z 04004KT 320V070 CAVOK 21/12 Q1019 NOSIG
Getting current METAR information for GCTS 191200Z 09019KT 060V120 9999 FEW025 27/18 Q1018 WS R07 NOSIG

Schedule Frequency

Route Map